sensor_id;sensor_type;location;lat;lon;timestamp;temperature;humidity
22629;DHT22;11481;53.694;9.910;2022-10-31T00:00:45;14.70;99.90
22629;DHT22;11481;53.694;9.910;2022-10-31T00:03:12;14.70;99.90
22629;DHT22;11481;53.694;9.910;2022-10-31T00:05:43;14.60;99.90
22629;DHT22;11481;53.694;9.910;2022-10-31T00:08:10;14.60;99.90
22629;DHT22;11481;53.694;9.910;2022-10-31T00:10:40;14.60;99.90
22629;DHT22;11481;53.694;9.910;2022-10-31T00:13:09;14.60;99.90
22629;DHT22;11481;53.694;9.910;2022-10-31T00:15:40;14.60;99.90
22629;DHT22;11481;53.694;9.910;2022-10-31T00:18:08;14.50;99.90
22629;DHT22;11481;53.694;9.910;2022-10-31T00:20:35;14.50;99.90
22629;DHT22;11481;53.694;9.910;2022-10-31T00:23:02;14.60;99.90
22629;DHT22;11481;53.694;9.910;2022-10-31T00:25:34;14.60;99.90
22629;DHT22;11481;53.694;9.910;2022-10-31T00:28:06;14.60;99.90
22629;DHT22;11481;53.694;9.910;2022-10-31T00:30:33;14.60;99.90
22629;DHT22;11481;53.694;9.910;2022-10-31T00:33:00;14.60;99.90
22629;DHT22;11481;53.694;9.910;2022-10-31T00:35:27;14.60;99.90
22629;DHT22;11481;53.694;9.910;2022-10-31T00:37:54;14.60;99.90
22629;DHT22;11481;53.694;9.910;2022-10-31T00:40:20;14.60;99.90
22629;DHT22;11481;53.694;9.910;2022-10-31T00:42:47;14.60;99.90
22629;DHT22;11481;53.694;9.910;2022-10-31T00:45:13;14.60;99.90
22629;DHT22;11481;53.694;9.910;2022-10-31T00:47:40;14.60;99.90
22629;DHT22;11481;53.694;9.910;2022-10-31T00:50:07;14.50;99.90
22629;DHT22;11481;53.694;9.910;2022-10-31T00:52:34;14.50;99.90
22629;DHT22;11481;53.694;9.910;2022-10-31T00:55:01;14.50;99.90
22629;DHT22;11481;53.694;9.910;2022-10-31T00:57:27;14.50;99.90
22629;DHT22;11481;53.694;9.910;2022-10-31T00:59:54;14.50;99.90
22629;DHT22;11481;53.694;9.910;2022-10-31T01:02:21;14.40;99.90
22629;DHT22;11481;53.694;9.910;2022-10-31T01:04:47;14.50;99.90
22629;DHT22;11481;53.694;9.910;2022-10-31T01:07:14;14.50;99.90
22629;DHT22;11481;53.694;9.910;2022-10-31T01:09:41;14.40;99.90
22629;DHT22;11481;53.694;9.910;2022-10-31T01:12:08;14.40;99.90
22629;DHT22;11481;53.694;9.910;2022-10-31T01:14:34;14.40;99.90
22629;DHT22;11481;53.694;9.910;2022-10-31T01:17:01;14.40;99.90
22629;DHT22;11481;53.694;9.910;2022-10-31T01:19:27;14.20;99.90
22629;DHT22;11481;53.694;9.910;2022-10-31T01:21:54;14.20;99.90
22629;DHT22;11481;53.694;9.910;2022-10-31T01:24:21;14.20;99.90
22629;DHT22;11481;53.694;9.910;2022-10-31T01:26:48;14.00;99.90
22629;DHT22;11481;53.694;9.910;2022-10-31T01:29:15;14.00;99.90
22629;DHT22;11481;53.694;9.910;2022-10-31T01:31:41;14.00;99.90
22629;DHT22;11481;53.694;9.910;2022-10-31T01:34:13;14.00;99.90
22629;DHT22;11481;53.694;9.910;2022-10-31T01:36:40;14.00;99.90
22629;DHT22;11481;53.694;9.910;2022-10-31T01:39:11;14.00;99.90
22629;DHT22;11481;53.694;9.910;2022-10-31T01:41:43;14.00;99.90
22629;DHT22;11481;53.694;9.910;2022-10-31T01:47:31;14.00;99.90
22629;DHT22;11481;53.694;9.910;2022-10-31T01:49:51;14.00;99.90
22629;DHT22;11481;53.694;9.910;2022-10-31T01:52:38;14.00;99.90
22629;DHT22;11481;53.694;9.910;2022-10-31T01:55:15;14.00;99.90
22629;DHT22;11481;53.694;9.910;2022-10-31T01:57:46;14.00;99.90
22629;DHT22;11481;53.694;9.910;2022-10-31T02:00:15;14.00;99.90
22629;DHT22;11481;53.694;9.910;2022-10-31T02:02:42;14.00;99.90
22629;DHT22;11481;53.694;9.910;2022-10-31T02:05:14;13.90;99.90
22629;DHT22;11481;53.694;9.910;2022-10-31T02:07:52;13.90;99.90
22629;DHT22;11481;53.694;9.910;2022-10-31T02:10:22;13.90;99.90
22629;DHT22;11481;53.694;9.910;2022-10-31T02:12:53;13.90;99.90
22629;DHT22;11481;53.694;9.910;2022-10-31T02:15:21;13.80;99.90
22629;DHT22;11481;53.694;9.910;2022-10-31T02:17:48;13.90;99.90
22629;DHT22;11481;53.694;9.910;2022-10-31T02:20:20;13.80;99.90
22629;DHT22;11481;53.694;9.910;2022-10-31T02:25:58;13.80;99.90
22629;DHT22;11481;53.694;9.910;2022-10-31T02:31:39;13.80;99.90
22629;DHT22;11481;53.694;9.910;2022-10-31T02:34:33;13.80;99.90
22629;DHT22;11481;53.694;9.910;2022-10-31T02:42:33;13.80;99.90
22629;DHT22;11481;53.694;9.910;2022-10-31T02:45:26;13.80;99.90
22629;DHT22;11481;53.694;9.910;2022-10-31T02:47:58;13.80;99.90
22629;DHT22;11481;53.694;9.910;2022-10-31T02:50:33;13.80;99.90
22629;DHT22;11481;53.694;9.910;2022-10-31T02:53:00;13.80;99.90
22629;DHT22;11481;53.694;9.910;2022-10-31T02:58:04;13.90;99.90
22629;DHT22;11481;53.694;9.910;2022-10-31T03:04:03;13.80;99.90
22629;DHT22;11481;53.694;9.910;2022-10-31T03:06:35;13.80;99.90
22629;DHT22;11481;53.694;9.910;2022-10-31T03:09:27;13.80;99.90
22629;DHT22;11481;53.694;9.910;2022-10-31T03:12:11;13.80;99.90
22629;DHT22;11481;53.694;9.910;2022-10-31T03:14:51;13.70;99.90
22629;DHT22;11481;53.694;9.910;2022-10-31T03:17:29;13.70;99.90
22629;DHT22;11481;53.694;9.910;2022-10-31T03:19:59;13.70;99.90
22629;DHT22;11481;53.694;9.910;2022-10-31T03:22:29;13.70;99.90
22629;DHT22;11481;53.694;9.910;2022-10-31T03:24:58;13.70;99.90
22629;DHT22;11481;53.694;9.910;2022-10-31T03:27:28;13.70;99.90
22629;DHT22;11481;53.694;9.910;2022-10-31T03:30:01;13.70;99.90
22629;DHT22;11481;53.694;9.910;2022-10-31T03:32:33;13.70;99.90
22629;DHT22;11481;53.694;9.910;2022-10-31T03:35:04;13.70;99.90
22629;DHT22;11481;53.694;9.910;2022-10-31T03:37:33;13.70;99.90
22629;DHT22;11481;53.694;9.910;2022-10-31T03:40:03;13.70;99.90
22629;DHT22;11481;53.694;9.910;2022-10-31T03:42:33;13.70;99.90
22629;DHT22;11481;53.694;9.910;2022-10-31T03:45:08;13.70;99.90
22629;DHT22;11481;53.694;9.910;2022-10-31T03:47:38;13.70;99.90
22629;DHT22;11481;53.694;9.910;2022-10-31T03:50:07;13.70;99.90
22629;DHT22;11481;53.694;9.910;2022-10-31T03:52:42;13.80;99.90
22629;DHT22;11481;53.694;9.910;2022-10-31T03:58:02;13.70;99.90
22629;DHT22;11481;53.694;9.910;2022-10-31T04:00:32;13.60;99.90
22629;DHT22;11481;53.694;9.910;2022-10-31T04:03:04;13.60;99.90
22629;DHT22;11481;53.694;9.910;2022-10-31T04:05:32;13.70;99.90
22629;DHT22;11481;53.694;9.910;2022-10-31T04:08:01;13.70;99.90
22629;DHT22;11481;53.694;9.910;2022-10-31T04:10:29;13.60;99.90
22629;DHT22;11481;53.694;9.910;2022-10-31T04:13:07;13.70;99.90
22629;DHT22;11481;53.694;9.910;2022-10-31T04:15:35;13.70;99.90
22629;DHT22;11481;53.694;9.910;2022-10-31T04:18:04;13.70;99.90
22629;DHT22;11481;53.694;9.910;2022-10-31T04:20:34;13.70;99.90
22629;DHT22;11481;53.694;9.910;2022-10-31T04:23:02;13.70;99.90
22629;DHT22;11481;53.694;9.910;2022-10-31T04:25:29;13.60;99.90
22629;DHT22;11481;53.694;9.910;2022-10-31T04:27:56;13.70;99.90
22629;DHT22;11481;53.694;9.910;2022-10-31T04:30:23;13.70;99.90
22629;DHT22;11481;53.694;9.910;2022-10-31T04:32:50;13.70;99.90
22629;DHT22;11481;53.694;9.910;2022-10-31T04:35:16;13.80;99.90
22629;DHT22;11481;53.694;9.910;2022-10-31T04:37:43;13.70;99.90
22629;DHT22;11481;53.694;9.910;2022-10-31T04:40:10;13.70;99.90
22629;DHT22;11481;53.694;9.910;2022-10-31T04:42:37;13.70;99.90
22629;DHT22;11481;53.694;9.910;2022-10-31T04:45:04;13.80;99.90
22629;DHT22;11481;53.694;9.910;2022-10-31T04:47:32;13.70;99.90
22629;DHT22;11481;53.694;9.910;2022-10-31T04:50:00;13.70;99.90
22629;DHT22;11481;53.694;9.910;2022-10-31T04:52:26;13.70;99.90
22629;DHT22;11481;53.694;9.910;2022-10-31T04:54:53;13.70;99.90
22629;DHT22;11481;53.694;9.910;2022-10-31T04:57:19;13.60;99.90
22629;DHT22;11481;53.694;9.910;2022-10-31T04:59:46;13.60;99.90
22629;DHT22;11481;53.694;9.910;2022-10-31T05:02:13;13.70;99.90
22629;DHT22;11481;53.694;9.910;2022-10-31T05:04:39;13.70;99.90
22629;DHT22;11481;53.694;9.910;2022-10-31T05:07:11;13.60;99.90
22629;DHT22;11481;53.694;9.910;2022-10-31T05:09:38;13.60;99.90
22629;DHT22;11481;53.694;9.910;2022-10-31T05:12:04;13.70;99.90
22629;DHT22;11481;53.694;9.910;2022-10-31T05:14:31;13.60;99.90
22629;DHT22;11481;53.694;9.910;2022-10-31T05:16:57;13.70;99.90
22629;DHT22;11481;53.694;9.910;2022-10-31T05:19:24;13.70;99.90
22629;DHT22;11481;53.694;9.910;2022-10-31T05:21:50;13.70;99.90
22629;DHT22;11481;53.694;9.910;2022-10-31T05:24:17;13.70;99.90
22629;DHT22;11481;53.694;9.910;2022-10-31T05:26:44;13.70;99.90
22629;DHT22;11481;53.694;9.910;2022-10-31T05:29:10;13.70;99.90
22629;DHT22;11481;53.694;9.910;2022-10-31T05:31:37;13.70;99.90
22629;DHT22;11481;53.694;9.910;2022-10-31T05:34:03;13.60;99.90
22629;DHT22;11481;53.694;9.910;2022-10-31T05:36:30;13.60;99.90
22629;DHT22;11481;53.694;9.910;2022-10-31T05:38:56;13.50;99.90
22629;DHT22;11481;53.694;9.910;2022-10-31T05:41:23;13.60;99.90
22629;DHT22;11481;53.694;9.910;2022-10-31T05:43:50;13.60;99.90
22629;DHT22;11481;53.694;9.910;2022-10-31T05:46:17;13.60;99.90
22629;DHT22;11481;53.694;9.910;2022-10-31T05:48:43;13.60;99.90
22629;DHT22;11481;53.694;9.910;2022-10-31T05:51:10;13.60;99.90
22629;DHT22;11481;53.694;9.910;2022-10-31T05:53:38;13.60;99.90
22629;DHT22;11481;53.694;9.910;2022-10-31T05:56:05;13.60;99.90
22629;DHT22;11481;53.694;9.910;2022-10-31T05:58:31;13.50;99.90
22629;DHT22;11481;53.694;9.910;2022-10-31T06:00:58;13.60;99.90
22629;DHT22;11481;53.694;9.910;2022-10-31T06:03:24;13.60;99.90
22629;DHT22;11481;53.694;9.910;2022-10-31T06:05:51;13.60;99.90
22629;DHT22;11481;53.694;9.910;2022-10-31T06:08:20;13.60;99.90
22629;DHT22;11481;53.694;9.910;2022-10-31T06:10:47;13.60;99.90
22629;DHT22;11481;53.694;9.910;2022-10-31T06:13:14;13.60;99.90
22629;DHT22;11481;53.694;9.910;2022-10-31T06:15:41;13.60;99.90
22629;DHT22;11481;53.694;9.910;2022-10-31T06:18:08;13.60;99.90
22629;DHT22;11481;53.694;9.910;2022-10-31T06:20:35;13.70;99.90
22629;DHT22;11481;53.694;9.910;2022-10-31T06:23:02;13.70;99.90
22629;DHT22;11481;53.694;9.910;2022-10-31T06:25:30;13.70;99.90
22629;DHT22;11481;53.694;9.910;2022-10-31T06:27:56;13.70;99.90
22629;DHT22;11481;53.694;9.910;2022-10-31T06:30:24;13.70;99.90
22629;DHT22;11481;53.694;9.910;2022-10-31T06:33:15;13.70;99.90
22629;DHT22;11481;53.694;9.910;2022-10-31T06:35:47;13.70;99.90
22629;DHT22;11481;53.694;9.910;2022-10-31T06:38:14;13.80;99.90
22629;DHT22;11481;53.694;9.910;2022-10-31T06:40:41;13.70;99.90
22629;DHT22;11481;53.694;9.910;2022-10-31T06:43:07;13.70;99.90
22629;DHT22;11481;53.694;9.910;2022-10-31T06:45:34;13.70;99.90
22629;DHT22;11481;53.694;9.910;2022-10-31T06:48:01;13.60;99.90
22629;DHT22;11481;53.694;9.910;2022-10-31T06:50:44;13.70;99.90
22629;DHT22;11481;53.694;9.910;2022-10-31T06:53:11;13.80;99.90
22629;DHT22;11481;53.694;9.910;2022-10-31T06:55:38;13.70;99.90
22629;DHT22;11481;53.694;9.910;2022-10-31T06:58:09;13.70;99.90
22629;DHT22;11481;53.694;9.910;2022-10-31T07:00:36;13.60;99.90
22629;DHT22;11481;53.694;9.910;2022-10-31T07:03:11;13.70;99.90
22629;DHT22;11481;53.694;9.910;2022-10-31T07:05:39;13.60;99.90
22629;DHT22;11481;53.694;9.910;2022-10-31T07:08:08;13.70;99.90
22629;DHT22;11481;53.694;9.910;2022-10-31T07:10:36;13.70;99.90
22629;DHT22;11481;53.694;9.910;2022-10-31T07:13:13;13.60;99.90
22629;DHT22;11481;53.694;9.910;2022-10-31T07:15:41;13.70;99.90
22629;DHT22;11481;53.694;9.910;2022-10-31T07:18:10;13.70;99.90
22629;DHT22;11481;53.694;9.910;2022-10-31T07:20:37;13.60;99.90
22629;DHT22;11481;53.694;9.910;2022-10-31T07:23:04;13.50;99.90
22629;DHT22;11481;53.694;9.910;2022-10-31T07:25:31;13.60;99.90
22629;DHT22;11481;53.694;9.910;2022-10-31T07:27:58;13.50;99.90
22629;DHT22;11481;53.694;9.910;2022-10-31T07:30:25;13.50;99.90
22629;DHT22;11481;53.694;9.910;2022-10-31T07:32:52;13.50;99.90
22629;DHT22;11481;53.694;9.910;2022-10-31T07:35:22;13.60;99.90
22629;DHT22;11481;53.694;9.910;2022-10-31T07:37:49;13.70;99.90
22629;DHT22;11481;53.694;9.910;2022-10-31T07:40:17;13.70;99.90
22629;DHT22;11481;53.694;9.910;2022-10-31T07:42:46;13.70;99.90
22629;DHT22;11481;53.694;9.910;2022-10-31T07:45:15;13.70;99.90
22629;DHT22;11481;53.694;9.910;2022-10-31T07:47:50;13.70;99.90
22629;DHT22;11481;53.694;9.910;2022-10-31T07:50:19;13.70;99.90
22629;DHT22;11481;53.694;9.910;2022-10-31T07:52:47;13.70;99.90
22629;DHT22;11481;53.694;9.910;2022-10-31T07:55:14;13.70;99.90
22629;DHT22;11481;53.694;9.910;2022-10-31T07:57:40;13.70;99.90
22629;DHT22;11481;53.694;9.910;2022-10-31T08:00:09;13.60;99.90
22629;DHT22;11481;53.694;9.910;2022-10-31T08:02:36;13.60;99.90
22629;DHT22;11481;53.694;9.910;2022-10-31T08:05:02;13.50;99.90
22629;DHT22;11481;53.694;9.910;2022-10-31T08:07:29;13.40;99.90
22629;DHT22;11481;53.694;9.910;2022-10-31T08:09:56;13.40;99.90
22629;DHT22;11481;53.694;9.910;2022-10-31T08:12:22;13.30;99.90
22629;DHT22;11481;53.694;9.910;2022-10-31T08:14:49;13.40;99.90
22629;DHT22;11481;53.694;9.910;2022-10-31T08:17:16;13.30;99.90
22629;DHT22;11481;53.694;9.910;2022-10-31T08:19:43;13.30;99.90
22629;DHT22;11481;53.694;9.910;2022-10-31T08:22:12;13.30;99.90
22629;DHT22;11481;53.694;9.910;2022-10-31T08:24:38;13.30;99.90
22629;DHT22;11481;53.694;9.910;2022-10-31T08:27:10;13.30;99.90
22629;DHT22;11481;53.694;9.910;2022-10-31T08:29:36;13.40;99.90
22629;DHT22;11481;53.694;9.910;2022-10-31T08:32:03;13.40;99.90
22629;DHT22;11481;53.694;9.910;2022-10-31T08:34:29;13.40;99.90
22629;DHT22;11481;53.694;9.910;2022-10-31T08:36:56;13.40;99.90
22629;DHT22;11481;53.694;9.910;2022-10-31T08:39:23;13.40;99.90
22629;DHT22;11481;53.694;9.910;2022-10-31T08:41:50;13.40;99.90
22629;DHT22;11481;53.694;9.910;2022-10-31T08:44:16;13.50;99.90
22629;DHT22;11481;53.694;9.910;2022-10-31T08:46:43;13.50;99.90
22629;DHT22;11481;53.694;9.910;2022-10-31T08:49:10;13.50;99.90
22629;DHT22;11481;53.694;9.910;2022-10-31T08:51:36;13.50;99.90
22629;DHT22;11481;53.694;9.910;2022-10-31T08:54:03;13.60;99.90
22629;DHT22;11481;53.694;9.910;2022-10-31T08:56:30;13.60;99.90
22629;DHT22;11481;53.694;9.910;2022-10-31T08:58:56;13.70;99.90
22629;DHT22;11481;53.694;9.910;2022-10-31T09:01:23;13.70;99.90
22629;DHT22;11481;53.694;9.910;2022-10-31T09:03:50;13.80;99.90
22629;DHT22;11481;53.694;9.910;2022-10-31T09:06:17;13.90;99.90
22629;DHT22;11481;53.694;9.910;2022-10-31T09:08:44;14.00;99.90
22629;DHT22;11481;53.694;9.910;2022-10-31T09:11:10;14.00;99.90
22629;DHT22;11481;53.694;9.910;2022-10-31T09:13:37;14.00;99.90
22629;DHT22;11481;53.694;9.910;2022-10-31T09:16:07;14.00;99.90
22629;DHT22;11481;53.694;9.910;2022-10-31T09:18:34;14.10;99.90
22629;DHT22;11481;53.694;9.910;2022-10-31T09:21:01;14.10;99.90
22629;DHT22;11481;53.694;9.910;2022-10-31T09:23:28;14.20;99.90
22629;DHT22;11481;53.694;9.910;2022-10-31T09:25:55;14.20;99.90
22629;DHT22;11481;53.694;9.910;2022-10-31T09:28:23;14.40;99.90
22629;DHT22;11481;53.694;9.910;2022-10-31T09:30:51;14.50;99.90
22629;DHT22;11481;53.694;9.910;2022-10-31T09:33:19;14.50;99.90
22629;DHT22;11481;53.694;9.910;2022-10-31T09:35:46;14.60;99.90
22629;DHT22;11481;53.694;9.910;2022-10-31T09:38:15;14.60;99.90
22629;DHT22;11481;53.694;9.910;2022-10-31T09:40:45;14.70;99.90
22629;DHT22;11481;53.694;9.910;2022-10-31T09:43:17;14.70;99.90
22629;DHT22;11481;53.694;9.910;2022-10-31T09:46:00;14.70;99.90
22629;DHT22;11481;53.694;9.910;2022-10-31T09:51:31;14.40;99.90
22629;DHT22;11481;53.694;9.910;2022-10-31T09:54:16;14.40;99.90
22629;DHT22;11481;53.694;9.910;2022-10-31T09:56:44;14.30;99.90
22629;DHT22;11481;53.694;9.910;2022-10-31T09:59:20;14.40;99.90
22629;DHT22;11481;53.694;9.910;2022-10-31T10:01:59;14.40;99.90
22629;DHT22;11481;53.694;9.910;2022-10-31T10:06:58;14.60;99.90
22629;DHT22;11481;53.694;9.910;2022-10-31T10:09:26;14.60;99.90
22629;DHT22;11481;53.694;9.910;2022-10-31T10:12:38;14.60;99.90
22629;DHT22;11481;53.694;9.910;2022-10-31T10:15:30;14.60;99.90
22629;DHT22;11481;53.694;9.910;2022-10-31T10:26:20;14.90;99.90
22629;DHT22;11481;53.694;9.910;2022-10-31T10:31:42;14.90;99.90
22629;DHT22;11481;53.694;9.910;2022-10-31T10:34:29;14.90;99.90
22629;DHT22;11481;53.694;9.910;2022-10-31T10:37:01;14.90;99.90
22629;DHT22;11481;53.694;9.910;2022-10-31T10:39:41;14.90;99.90
22629;DHT22;11481;53.694;9.910;2022-10-31T10:42:14;15.00;99.90
22629;DHT22;11481;53.694;9.910;2022-10-31T10:45:00;15.00;99.90
22629;DHT22;11481;53.694;9.910;2022-10-31T10:48:24;14.90;99.90
22629;DHT22;11481;53.694;9.910;2022-10-31T10:50:50;14.90;99.90
22629;DHT22;11481;53.694;9.910;2022-10-31T10:53:41;14.90;99.90
22629;DHT22;11481;53.694;9.910;2022-10-31T10:59:15;14.90;99.90
22629;DHT22;11481;53.694;9.910;2022-10-31T11:01:42;14.80;99.90
22629;DHT22;11481;53.694;9.910;2022-10-31T11:04:33;14.80;99.90
22629;DHT22;11481;53.694;9.910;2022-10-31T11:07:08;14.90;99.90
22629;DHT22;11481;53.694;9.910;2022-10-31T11:09:38;14.90;99.90
22629;DHT22;11481;53.694;9.910;2022-10-31T11:12:09;14.90;99.90
22629;DHT22;11481;53.694;9.910;2022-10-31T11:14:52;14.90;99.90
22629;DHT22;11481;53.694;9.910;2022-10-31T11:17:27;15.00;99.90
22629;DHT22;11481;53.694;9.910;2022-10-31T11:20:23;15.10;99.90
22629;DHT22;11481;53.694;9.910;2022-10-31T11:23:01;15.10;99.90
22629;DHT22;11481;53.694;9.910;2022-10-31T11:25:28;15.10;99.90
22629;DHT22;11481;53.694;9.910;2022-10-31T11:28:00;15.00;99.90
22629;DHT22;11481;53.694;9.910;2022-10-31T11:30:27;15.10;99.90
22629;DHT22;11481;53.694;9.910;2022-10-31T11:32:55;15.10;99.90
22629;DHT22;11481;53.694;9.910;2022-10-31T11:35:24;15.10;99.90
22629;DHT22;11481;53.694;9.910;2022-10-31T11:37:53;15.10;99.90
22629;DHT22;11481;53.694;9.910;2022-10-31T11:40:26;15.10;99.90
22629;DHT22;11481;53.694;9.910;2022-10-31T11:42:56;15.10;99.90
22629;DHT22;11481;53.694;9.910;2022-10-31T11:47:52;15.20;99.90
22629;DHT22;11481;53.694;9.910;2022-10-31T11:50:35;15.20;99.90
22629;DHT22;11481;53.694;9.910;2022-10-31T11:53:03;15.20;99.90
22629;DHT22;11481;53.694;9.910;2022-10-31T11:55:36;15.20;99.90
22629;DHT22;11481;53.694;9.910;2022-10-31T11:58:03;15.30;99.90
22629;DHT22;11481;53.694;9.910;2022-10-31T12:00:36;15.30;99.90
22629;DHT22;11481;53.694;9.910;2022-10-31T12:06:18;15.30;99.90
22629;DHT22;11481;53.694;9.910;2022-10-31T12:08:48;15.30;99.90
22629;DHT22;11481;53.694;9.910;2022-10-31T12:20:05;15.20;99.90
22629;DHT22;11481;53.694;9.910;2022-10-31T12:33:37;15.40;99.90
22629;DHT22;11481;53.694;9.910;2022-10-31T12:36:36;15.60;99.90
22629;DHT22;11481;53.694;9.910;2022-10-31T12:48:52;15.70;99.90
22629;DHT22;11481;53.694;9.910;2022-10-31T12:51:27;15.80;99.90
22629;DHT22;11481;53.694;9.910;2022-10-31T12:54:24;15.90;99.90
22629;DHT22;11481;53.694;9.910;2022-10-31T12:57:00;16.00;99.90
22629;DHT22;11481;53.694;9.910;2022-10-31T13:02:18;15.90;99.90
22629;DHT22;11481;53.694;9.910;2022-10-31T13:04:57;16.00;99.90
22629;DHT22;11481;53.694;9.910;2022-10-31T13:07:46;15.90;99.90
22629;DHT22;11481;53.694;9.910;2022-10-31T13:10:23;16.00;99.90
22629;DHT22;11481;53.694;9.910;2022-10-31T13:12:57;16.00;99.90
22629;DHT22;11481;53.694;9.910;2022-10-31T13:15:28;16.10;99.90
22629;DHT22;11481;53.694;9.910;2022-10-31T13:17:59;16.20;99.90
22629;DHT22;11481;53.694;9.910;2022-10-31T13:20:32;16.20;99.90
22629;DHT22;11481;53.694;9.910;2022-10-31T13:23:16;16.10;99.90
22629;DHT22;11481;53.694;9.910;2022-10-31T13:31:41;16.10;99.90
22629;DHT22;11481;53.694;9.910;2022-10-31T13:34:29;16.10;99.90
22629;DHT22;11481;53.694;9.910;2022-10-31T13:37:17;16.10;99.90
22629;DHT22;11481;53.694;9.910;2022-10-31T13:40:25;16.10;99.90
22629;DHT22;11481;53.694;9.910;2022-10-31T13:43:08;16.10;99.90
22629;DHT22;11481;53.694;9.910;2022-10-31T13:45:51;16.10;99.90
22629;DHT22;11481;53.694;9.910;2022-10-31T13:50:58;16.20;99.90
22629;DHT22;11481;53.694;9.910;2022-10-31T13:53:44;16.30;99.90
22629;DHT22;11481;53.694;9.910;2022-10-31T13:56:17;16.20;99.90
22629;DHT22;11481;53.694;9.910;2022-10-31T13:59:14;16.20;99.90
22629;DHT22;11481;53.694;9.910;2022-10-31T14:02:00;16.10;99.90
22629;DHT22;11481;53.694;9.910;2022-10-31T14:04:38;16.10;99.90
22629;DHT22;11481;53.694;9.910;2022-10-31T14:07:19;16.20;99.90
22629;DHT22;11481;53.694;9.910;2022-10-31T14:09:54;16.20;99.90
22629;DHT22;11481;53.694;9.910;2022-10-31T14:12:26;16.10;99.90
22629;DHT22;11481;53.694;9.910;2022-10-31T14:14:59;16.20;99.90
22629;DHT22;11481;53.694;9.910;2022-10-31T14:17:31;16.20;99.90
22629;DHT22;11481;53.694;9.910;2022-10-31T14:22:39;16.30;99.90
22629;DHT22;11481;53.694;9.910;2022-10-31T14:25:43;16.30;99.90
22629;DHT22;11481;53.694;9.910;2022-10-31T14:28:32;16.40;99.90
22629;DHT22;11481;53.694;9.910;2022-10-31T14:31:00;16.40;99.90
22629;DHT22;11481;53.694;9.910;2022-10-31T14:33:28;16.40;99.90
22629;DHT22;11481;53.694;9.910;2022-10-31T14:36:18;16.40;99.90
22629;DHT22;11481;53.694;9.910;2022-10-31T14:46:44;16.30;99.90
22629;DHT22;11481;53.694;9.910;2022-10-31T14:52:17;16.20;99.90
22629;DHT22;11481;53.694;9.910;2022-10-31T14:54:50;16.20;99.90
22629;DHT22;11481;53.694;9.910;2022-10-31T14:57:27;16.10;99.90
22629;DHT22;11481;53.694;9.910;2022-10-31T15:00:07;16.10;99.90
22629;DHT22;11481;53.694;9.910;2022-10-31T15:05:20;16.10;99.90
22629;DHT22;11481;53.694;9.910;2022-10-31T15:07:58;16.10;99.90
22629;DHT22;11481;53.694;9.910;2022-10-31T15:10:28;16.10;99.90
22629;DHT22;11481;53.694;9.910;2022-10-31T15:12:56;16.10;99.90
22629;DHT22;11481;53.694;9.910;2022-10-31T15:15:34;16.10;99.90
22629;DHT22;11481;53.694;9.910;2022-10-31T15:18:04;16.10;99.90
22629;DHT22;11481;53.694;9.910;2022-10-31T15:20:37;16.10;99.90
22629;DHT22;11481;53.694;9.910;2022-10-31T15:23:11;16.00;99.90
22629;DHT22;11481;53.694;9.910;2022-10-31T15:25:40;16.00;99.90
22629;DHT22;11481;53.694;9.910;2022-10-31T15:28:22;16.10;99.90
22629;DHT22;11481;53.694;9.910;2022-10-31T15:30:51;16.10;99.90
22629;DHT22;11481;53.694;9.910;2022-10-31T15:33:24;16.10;99.90
22629;DHT22;11481;53.694;9.910;2022-10-31T15:35:59;16.00;99.90
22629;DHT22;11481;53.694;9.910;2022-10-31T15:38:27;16.00;99.90
22629;DHT22;11481;53.694;9.910;2022-10-31T15:41:03;16.00;99.90
22629;DHT22;11481;53.694;9.910;2022-10-31T15:43:36;15.90;99.90
22629;DHT22;11481;53.694;9.910;2022-10-31T15:46:07;15.90;99.90
22629;DHT22;11481;53.694;9.910;2022-10-31T15:48:35;15.80;99.90
22629;DHT22;11481;53.694;9.910;2022-10-31T15:51:02;15.80;99.90
22629;DHT22;11481;53.694;9.910;2022-10-31T15:53:52;15.70;99.90
22629;DHT22;11481;53.694;9.910;2022-10-31T15:56:29;15.70;99.90
22629;DHT22;11481;53.694;9.910;2022-10-31T15:58:58;15.60;99.90
22629;DHT22;11481;53.694;9.910;2022-10-31T16:01:32;15.60;99.90
22629;DHT22;11481;53.694;9.910;2022-10-31T16:04:21;15.60;99.90
22629;DHT22;11481;53.694;9.910;2022-10-31T16:07:14;15.60;99.90
22629;DHT22;11481;53.694;9.910;2022-10-31T16:12:16;15.50;99.90
22629;DHT22;11481;53.694;9.910;2022-10-31T16:14:49;15.50;99.90
22629;DHT22;11481;53.694;9.910;2022-10-31T16:17:18;15.50;99.90
22629;DHT22;11481;53.694;9.910;2022-10-31T16:19:56;15.50;99.90
22629;DHT22;11481;53.694;9.910;2022-10-31T16:22:34;15.50;99.90
22629;DHT22;11481;53.694;9.910;2022-10-31T16:27:35;15.40;99.90
22629;DHT22;11481;53.694;9.910;2022-10-31T16:30:30;15.30;99.90
22629;DHT22;11481;53.694;9.910;2022-10-31T16:33:02;15.30;99.90
22629;DHT22;11481;53.694;9.910;2022-10-31T16:35:37;15.30;99.90
22629;DHT22;11481;53.694;9.910;2022-10-31T16:38:05;15.30;99.90
22629;DHT22;11481;53.694;9.910;2022-10-31T16:40:32;15.30;99.90
22629;DHT22;11481;53.694;9.910;2022-10-31T16:42:59;15.30;99.90
22629;DHT22;11481;53.694;9.910;2022-10-31T16:45:31;15.30;99.90
22629;DHT22;11481;53.694;9.910;2022-10-31T16:48:05;15.30;99.90
22629;DHT22;11481;53.694;9.910;2022-10-31T16:50:35;15.20;99.90
22629;DHT22;11481;53.694;9.910;2022-10-31T16:53:03;15.20;99.90
22629;DHT22;11481;53.694;9.910;2022-10-31T16:55:54;15.20;99.90
22629;DHT22;11481;53.694;9.910;2022-10-31T16:58:28;15.10;99.90
22629;DHT22;11481;53.694;9.910;2022-10-31T17:00:56;15.10;99.90
22629;DHT22;11481;53.694;9.910;2022-10-31T17:03:23;15.10;99.90
22629;DHT22;11481;53.694;9.910;2022-10-31T17:05:50;15.00;99.90
22629;DHT22;11481;53.694;9.910;2022-10-31T17:08:17;14.90;99.90
22629;DHT22;11481;53.694;9.910;2022-10-31T17:10:45;14.90;99.90
22629;DHT22;11481;53.694;9.910;2022-10-31T17:13:20;14.80;99.90
22629;DHT22;11481;53.694;9.910;2022-10-31T17:15:50;14.70;99.90
22629;DHT22;11481;53.694;9.910;2022-10-31T17:18:17;14.70;99.90
22629;DHT22;11481;53.694;9.910;2022-10-31T17:20:58;14.70;99.90
22629;DHT22;11481;53.694;9.910;2022-10-31T17:23:26;14.60;99.90
22629;DHT22;11481;53.694;9.910;2022-10-31T17:25:53;14.60;99.90
22629;DHT22;11481;53.694;9.910;2022-10-31T17:28:20;14.60;99.90
22629;DHT22;11481;53.694;9.910;2022-10-31T17:30:47;14.60;99.90
22629;DHT22;11481;53.694;9.910;2022-10-31T17:33:15;14.60;99.90
22629;DHT22;11481;53.694;9.910;2022-10-31T17:35:42;14.60;99.90
22629;DHT22;11481;53.694;9.910;2022-10-31T17:38:10;14.50;99.90
22629;DHT22;11481;53.694;9.910;2022-10-31T17:40:39;14.50;99.90
22629;DHT22;11481;53.694;9.910;2022-10-31T17:43:09;14.50;99.90
22629;DHT22;11481;53.694;9.910;2022-10-31T17:45:38;14.50;99.90
22629;DHT22;11481;53.694;9.910;2022-10-31T17:48:06;14.50;99.90